Airport View

Enter AWOS ICAO identifier for current METAR.

ex. KFNL

KNHK 192252Z 00000KT 10SM FEW060 SCT250 16/13 A3026 RMK AO2 SLP246 T01610133 $

19 Oct 2020 23:56

Other Area AWOS: K2W6 - KNUI - KCGE - KTGI

TAF KNHK 1815/1915 09007G12KT 9999 BKN050 QNH3032INS BECMG 1818/1820 12008G13KT 9999 SCT040 SCT180 QNH3028INS BECMG 1902/1904 15006KT FEW180 SCT300 QNH3026INS BECMG 1909/1911 13004KT 6000 BR FEW020 SCT050 SCT300 QNH3027INS BECMG 1912/1914 15007G12KT 9999 NSW FEW020 SCT050 BKN300 QNH3024INS T16/1816Z T06/1902Z FN00200